Time;durP1;ratioP1;P1;durP2;ratioP2;P2;SDS_P1;SDS_P2;PMS_P1;PMS_P2;Temp;Humidity;BMP_temperature;BMP_pressure;BME280_temperature;BME280_humidity;BME280_pressure;Samples;Min_cycle;Max_cycle;Signal;HPM_P1;HPM_P2
2022/12/20 00:01:21;;;;;;;6.40;2.90;;;;;;;8.57;97.60;101376.72;5053685;28;20029;-78
2022/12/20 00:03:50;;;;;;;;;;;;;;;8.66;98.37;101389.19;5054251;28;20087;-78
2022/12/20 00:06:16;;;;;;;5.57;3.10;;;;;;;8.72;97.53;101388.88;5053949;28;20372;-78
2022/12/20 00:08:41;;;;;;;6.15;3.03;;;;;;;8.74;97.13;101379.34;5053755;28;20021;-78
2022/12/20 00:11:08;;;;;;;6.55;3.28;;;;;;;8.74;97.16;101388.78;5054102;28;20071;-78
2022/12/20 00:13:34;;;;;;;5.35;3.10;;;;;;;8.75;96.49;101377.59;5053712;28;20025;-78
2022/12/20 00:16:11;;;;;;;5.78;2.90;;;;;;;8.85;96.32;101384.00;5052062;28;20044;-78
2022/12/20 00:18:37;;;;;;;5.85;3.25;;;;;;;8.89;96.08;101380.38;5053495;28;20025;-78
2022/12/20 00:21:05;;;;;;;5.78;3.20;;;;;;;8.93;95.82;101383.63;5053554;28;20063;-78
2022/12/20 00:23:30;;;;;;;9.25;2.83;;;;;;;8.96;95.70;101379.19;5053453;28;20021;-78
2022/12/20 00:26:04;;;;;;;5.63;2.60;;;;;;;8.98;95.79;101374.78;5053297;28;20039;-78
2022/12/20 00:28:30;;;;;;;7.28;3.15;;;;;;;9.04;95.14;101369.31;5053288;28;20067;-77
2022/12/20 00:30:56;;;;;;;6.43;3.03;;;;;;;8.87;95.01;101346.97;5052079;28;20033;-77
2022/12/20 00:33:22;;;;;;;6.72;3.05;;;;;;;9.09;94.80;101363.97;5053131;28;20024;-77
2022/12/20 00:35:47;;;;;;;6.65;3.38;;;;;;;9.08;94.73;101354.56;5053161;28;20392;-77
2022/12/20 00:38:13;;;;;;;7.25;3.05;;;;;;;9.08;94.59;101354.56;5053230;28;20017;-77
2022/12/20 00:40:38;;;;;;;7.32;3.25;;;;;;;8.94;94.38;101326.06;5053121;28;20036;-76
2022/12/20 00:43:04;;;;;;;6.57;2.78;;;;;;;9.17;93.98;101359.28;5053458;28;20044;-76
2022/12/20 00:45:29;;;;;;;7.28;3.38;;;;;;;9.17;93.67;101339.50;5053547;28;20533;-77
2022/12/20 00:47:54;;;;;;;6.43;3.03;;;;;;;9.27;93.75;101347.63;5053110;28;20469;-77
2022/12/20 00:50:19;;;;;;;9.05;3.50;;;;;;;9.28;93.44;101340.72;5052343;28;20029;-77
2022/12/20 00:52:45;;;;;;;6.72;3.08;;;;;;;9.10;94.00;101308.94;5053275;28;20025;-77
2022/12/20 00:55:10;;;;;;;7.22;3.28;;;;;;;9.33;93.01;101333.56;5053091;28;20490;-77
2022/12/20 00:57:35;;;;;;;6.78;3.42;;;;;;;9.33;93.05;101338.72;5053203;28;20029;-77
2022/12/20 01:00:01;;;;;;;7.90;3.17;;;;;;;9.19;92.86;101319.63;5052984;28;20022;-76
2022/12/20 01:02:26;;;;;;;7.30;3.40;;;;;;;9.39;92.82;101341.00;5052774;28;20063;-77
2022/12/20 01:04:51;;;;;;;8.45;3.65;;;;;;;9.41;92.96;101347.75;5052991;28;20055;-76
2022/12/20 01:07:18;;;;;;;7.45;3.38;;;;;;;9.20;92.86;101313.56;5053225;28;20060;-77
2022/12/20 01:09:43;;;;;;;7.20;3.28;;;;;;;9.45;92.88;101349.28;5053143;28;20024;-76
2022/12/20 01:12:10;;;;;;;6.47;3.00;;;;;;;9.33;92.79;101334.41;5053097;28;20021;-76
2022/12/20 01:14:35;;;;;;;8.75;3.53;;;;;;;9.49;93.32;101348.22;5053004;28;20025;-76
2022/12/20 01:17:00;;;;;;;9.98;3.65;;;;;;;9.30;94.75;101318.28;5052717;28;20350;-78
2022/12/20 01:19:26;;;;;;;9.88;3.30;;;;;;;9.29;96.79;101335.47;5053015;28;20029;-78
2022/12/20 01:21:51;;;;;;;7.50;3.33;;;;;;;9.24;98.01;101332.28;5052889;28;20021;-79
2022/12/20 01:24:18;;;;;;;9.02;3.55;;;;;;;9.28;99.27;101354.44;5052794;28;20033;-79
2022/12/20 01:26:44;;;;;;;8.65;3.60;;;;;;;9.20;100.00;101353.97;5052960;28;20075;-77
2022/12/20 01:29:09;;;;;;;9.07;3.88;;;;;;;9.08;100.00;101328.81;5052880;28;20430;-79
2022/12/20 01:31:35;;;;;;;11.15;4.13;;;;;;;9.09;100.00;101343.34;5052643;28;20025;-79
2022/12/20 01:34:00;;;;;;;8.98;3.83;;;;;;;8.77;100.00;101322.56;5052650;28;20029;-76
2022/12/20 01:36:29;;;;;;;9.15;4.10;;;;;;;8.98;100.00;101367.06;5052732;28;20037;-79
2022/12/20 01:38:56;;;;;;;7.65;4.15;;;;;;;8.91;100.00;101363.94;5052880;28;20025;-76
2022/12/20 01:41:22;;;;;;;9.50;3.97;;;;;;;8.87;100.00;101354.69;5052741;28;20074;-76
2022/12/20 01:43:56;;;;;;;8.25;3.65;;;;;;;8.73;100.00;101336.47;5052746;28;20416;-77
2022/12/20 01:46:24;;;;;;;9.15;4.30;;;;;;;8.77;100.00;101353.47;5051134;28;20502;-77
2022/12/20 01:48:59;;;;;;;10.10;4.47;;;;;;;8.69;100.00;101347.00;5052580;28;20060;-76
2022/12/20 01:51:29;;;;;;;8.18;4.70;;;;;;;8.50;100.00;101329.00;5052606;28;20025;-76
2022/12/20 01:54:01;;;;;;;9.07;4.63;;;;;;;8.52;100.00;101345.19;5052644;28;20444;-76
2022/12/20 01:56:26;;;;;;;9.00;4.65;;;;;;;8.48;100.00;101333.38;5052646;28;20036;-76
2022/12/20 01:58:54;;;;;;;8.55;4.35;;;;;;;8.26;100.00;101302.63;5052555;28;20029;-77
2022/12/20 02:01:22;;;;;;;9.40;4.72;;;;;;;8.38;100.00;101317.53;5054524;28;20025;-76
2022/12/20 02:03:50;;;;;;;9.60;4.97;;;;;;;8.47;100.00;101311.97;5056241;28;20045;-77
2022/12/20 02:06:19;;;;;;;7.95;4.55;;;;;;;8.44;100.00;101306.09;5056078;28;20025;-76
2022/12/20 02:08:46;;;;;;;7.13;3.85;;;;;;;8.51;100.00;101313.47;5056283;28;20029;-76
2022/12/20 02:11:35;;;;;;;9.15;4.50;;;;;;;8.54;100.00;101307.34;5056235;28;20029;-77
2022/12/20 02:14:31;;;;;;;9.02;4.47;;;;;;;8.55;100.00;101293.56;5056404;28;20397;-77
2022/12/20 02:17:11;;;;;;;7.78;4.18;;;;;;;8.56;100.00;101290.94;5056004;28;20028;-76
2022/12/20 02:20:05;;;;;;;8.05;4.68;;;;;;;8.58;100.00;101290.88;5055740;28;20029;-77
2022/12/20 02:22:42;;;;;;;11.02;5.05;;;;;;;8.59;100.00;101292.53;5055930;28;20480;-76
2022/12/20 02:25:35;;;;;;;9.38;4.60;;;;;;;8.50;100.00;101257.75;5055923;28;20033;-76
2022/12/20 02:28:16;;;;;;;10.30;4.97;;;;;;;8.60;100.00;101276.16;5055911;28;20052;-76
2022/12/20 02:30:44;;;;;;;7.00;4.10;;;;;;;8.57;100.00;101260.88;5054560;28;20400;-77
2022/12/20 02:33:11;;;;;;;9.70;4.25;;;;;;;8.51;100.00;101274.03;5055753;28;20033;-76
2022/12/20 02:35:38;;;;;;;9.50;4.07;;;;;;;8.54;100.00;101271.31;5055554;28;20028;-77
2022/12/20 02:38:25;;;;;;;8.13;3.83;;;;;;;8.53;100.00;101261.91;5055818;28;20040;-76
2022/12/20 02:40:55;;;;;;;5.95;3.88;;;;;;;8.49;100.00;101263.81;5054439;28;20099;-76
2022/12/20 02:46:08;;;;;;;8.98;4.03;;;;;;;8.47;100.00;101262.22;5055509;28;20040;-76
2022/12/20 02:48:36;;;;;;;6.72;3.55;;;;;;;8.43;100.00;101258.13;5055562;28;20037;-76
2022/12/20 02:51:03;;;;;;;8.68;4.05;;;;;;;8.44;100.00;101273.47;5055352;28;20068;-76
2022/12/20 02:53:29;;;;;;;8.40;3.63;;;;;;;8.44;100.00;101260.59;5055317;28;20107;-76
2022/12/20 02:56:29;;;;;;;7.85;3.55;;;;;;;8.49;100.00;101244.97;5055307;28;20167;-78
2022/12/20 02:59:06;;;;;;;5.95;3.30;;;;;;;8.45;100.00;101241.69;5033479;28;20100;-79
2022/12/20 03:01:46;;;;;;;5.40;3.30;;;;;;;8.40;100.00;101220.50;5033197;28;20041;-79
2022/12/20 03:04:12;;;;;;;7.65;3.45;;;;;;;8.41;100.00;101224.72;5032894;28;20087;-79
2022/12/20 03:06:53;;;;;;;7.63;3.70;;;;;;;8.48;100.00;101227.84;5033237;28;20116;-79
2022/12/20 03:09:19;;;;;;;6.50;2.97;;;;;;;8.62;100.00;101249.44;5033123;28;20400;-79
2022/12/20 03:11:44;;;;;;;5.30;3.28;;;;;;;8.48;100.00;101225.28;5032661;28;20040;-78
2022/12/20 03:14:09;;;;;;;7.85;3.00;;;;;;;8.53;100.00;101229.28;5032600;28;20053;-79
2022/12/20 03:16:34;;;;;;;7.40;3.17;;;;;;;8.65;100.00;101247.63;5032841;28;20029;-79
2022/12/20 03:19:00;;;;;;;5.95;3.13;;;;;;;8.69;100.00;101251.72;5032929;28;20417;-79
2022/12/20 03:21:25;;;;;;;5.28;3.05;;;;;;;8.74;100.00;101257.47;5032913;28;20069;-79
2022/12/20 03:23:50;;;;;;;6.38;2.97;;;;;;;8.70;100.00;101251.66;5032996;28;20039;-78
2022/12/20 03:26:16;;;;;;;6.03;2.97;;;;;;;8.82;100.00;101239.91;5032999;28;20025;-78
2022/12/20 03:28:41;;;;;;;6.28;2.60;;;;;;;8.85;100.00;101242.38;5032660;28;20041;-78
2022/12/20 03:31:06;;;;;;;5.18;2.95;;;;;;;8.82;100.00;101235.59;5032640;28;20026;-78
2022/12/20 03:33:32;;;;;;;6.60;2.90;;;;;;;8.96;100.00;101241.84;5018514;28;20100;-78
2022/12/20 03:35:57;;;;;;;6.28;2.75;;;;;;;8.86;100.00;101216.53;5054314;28;20036;-78
2022/12/20 03:38:22;;;;;;;7.05;3.13;;;;;;;8.99;100.00;101239.94;5054522;28;20095;-78
2022/12/20 03:40:48;;;;;;;6.60;3.17;;;;;;;8.99;100.00;101229.63;5054571;28;20103;-79
2022/12/20 03:43:13;;;;;;;6.95;3.00;;;;;;;9.03;100.00;101244.00;5054263;28;20035;-78
2022/12/20 03:45:38;;;;;;;5.03;2.80;;;;;;;9.07;100.00;101245.53;5054575;28;20104;-77
2022/12/20 03:48:03;;;;;;;4.72;2.60;;;;;;;9.04;100.00;101242.25;5054473;28;20020;-77
2022/12/20 03:50:30;;;;;;;5.88;2.42;;;;;;;9.21;100.00;101265.44;5054138;28;20029;-77
2022/12/20 03:52:55;;;;;;;6.70;3.05;;;;;;;9.18;100.00;101253.56;5054411;28;20025;-77
2022/12/20 03:55:20;;;;;;;7.78;2.90;;;;;;;9.32;100.00;101258.00;5054448;28;20025;-77
2022/12/20 03:57:46;;;;;;;5.82;3.15;;;;;;;9.13;100.00;101213.47;5054024;28;20431;-76
2022/12/20 04:00:12;;;;;;;4.47;2.83;;;;;;;9.34;100.00;101243.31;5054149;28;20032;-77
2022/12/20 04:02:37;;;;;;;6.70;3.20;;;;;;;9.38;100.00;101243.97;5053734;28;20049;-76
2022/12/20 04:05:03;;;;;;;6.97;2.90;;;;;;;9.39;100.00;101235.34;5053797;28;20033;-77
2022/12/20 04:07:28;;;;;;;4.90;2.80;;;;;;;9.42;100.00;101228.25;5052124;28;20049;-77
2022/12/20 04:09:53;;;;;;;7.07;3.00;;;;;;;9.35;100.00;101221.78;5053920;28;20040;-77
2022/12/20 04:12:19;;;;;;;6.45;3.10;;;;;;;9.38;100.00;101231.94;5052518;28;20052;-77
2022/12/20 04:14:44;;;;;;;6.10;2.92;;;;;;;9.47;100.00;101231.44;5053933;28;20021;-77
2022/12/20 04:17:09;;;;;;;4.32;2.78;;;;;;;9.55;100.00;101237.97;5053923;28;20112;-76
2022/12/20 04:19:35;;;;;;;5.57;3.05;;;;;;;9.57;100.00;101243.88;5053607;28;20031;-77
2022/12/20 04:22:00;;;;;;;4.63;2.80;;;;;;;9.45;100.00;101214.41;5053519;28;20057;-76
2022/12/20 04:24:25;;;;;;;5.82;2.72;;;;;;;9.62;100.00;101239.28;5053452;28;20028;-76
2022/12/20 04:26:51;;;;;;;6.10;3.13;;;;;;;9.61;100.00;101243.63;5053725;28;20051;-76
2022/12/20 04:29:16;;;;;;;5.93;2.95;;;;;;;9.63;100.00;101238.38;5053718;28;20037;-76
2022/12/20 04:31:41;;;;;;;4.45;2.63;;;;;;;9.58;100.00;101230.06;5052416;28;20025;-76
2022/12/20 04:34:07;;;;;;;5.47;3.10;;;;;;;9.38;100.00;101189.84;5053476;28;20064;-79
2022/12/20 04:36:32;;;;;;;6.90;2.80;;;;;;;9.61;100.00;101227.31;5053203;28;20039;-79
2022/12/20 04:38:58;;;;;;;5.28;3.03;;;;;;;9.69;100.00;101226.00;5053161;28;20461;-77
2022/12/20 04:41:23;;;;;;;4.95;2.78;;;;;;;9.68;100.00;101228.66;5053578;28;20021;-75
2022/12/20 04:43:51;;;;;;;6.22;2.72;;;;;;;9.56;100.00;101201.78;5051688;28;20154;-77
2022/12/20 04:46:17;;;;;;;7.25;2.78;;;;;;;9.71;100.00;101231.91;5053673;28;20083;-77
2022/12/20 04:48:43;;;;;;;6.43;2.72;;;;;;;9.62;100.00;101209.19;5053375;28;20375;-76
2022/12/20 04:51:08;;;;;;;6.43;2.97;;;;;;;9.68;100.00;101210.63;5052931;28;20025;-77
2022/12/20 04:53:48;;;;;;;6.72;2.92;;;;;;;9.54;100.00;101182.13;5053174;28;20056;-77
2022/12/20 04:56:20;;;;;;;4.90;2.63;;;;;;;9.68;100.00;101208.03;5053141;28;20040;-77
2022/12/20 04:58:48;;;;;;;5.80;2.67;;;;;;;9.75;100.00;101220.53;5053146;28;20025;-77
2022/12/20 05:01:13;;;;;;;6.38;2.53;;;;;;;9.81;100.00;101224.50;5052992;28;20032;-76
2022/12/20 05:03:39;;;;;;;5.72;2.80;;;;;;;9.71;100.00;101200.13;5052789;28;20094;-77
2022/12/20 05:06:05;;;;;;;4.90;2.67;;;;;;;9.78;100.00;101215.19;5052975;28;20047;-76
2022/12/20 05:08:31;;;;;;;4.65;2.67;;;;;;;9.81;100.00;101221.94;5053083;28;20048;-76
2022/12/20 05:10:56;;;;;;;5.32;2.70;;;;;;;9.81;100.00;101210.78;5053186;28;20420;-76
2022/12/20 05:13:22;;;;;;;6.85;2.80;;;;;;;9.66;100.00;101176.34;5053004;28;20025;-77
2022/12/20 05:15:54;;;;;;;5.55;2.72;;;;;;;9.80;100.00;101199.63;5051009;28;20037;-76
2022/12/20 05:18:20;;;;;;;4.75;2.40;;;;;;;9.70;100.00;101177.84;5052826;28;20049;-77
2022/12/20 05:20:46;;;;;;;4.47;2.65;;;;;;;9.72;100.00;101176.00;5052814;28;20029;-77
2022/12/20 05:28:40;;;;;;;6.07;2.55;;;;;;;9.78;100.00;101175.69;5053095;28;20392;-76
2022/12/20 05:31:05;;;;;;;6.03;2.47;;;;;;;9.60;100.00;101156.03;5052918;28;20029;-77
2022/12/20 05:33:31;;;;;;;6.53;3.10;;;;;;;9.69;100.00;101165.84;5052836;28;20112;-77
2022/12/20 05:35:56;;;;;;;5.45;2.78;;;;;;;9.72;100.00;101163.09;5053920;28;20028;-77
2022/12/20 05:38:22;;;;;;;6.45;2.78;;;;;;;9.77;100.00;101167.13;5056608;28;20057;-76
2022/12/20 05:40:49;;;;;;;6.45;2.80;;;;;;;9.82;100.00;101173.75;5056744;28;20102;-76
2022/12/20 05:43:15;;;;;;;5.78;2.60;;;;;;;9.84;100.00;101177.94;5056785;28;20488;-76
2022/12/20 05:45:45;;;;;;;7.35;2.90;;;;;;;9.75;100.00;101152.66;5056568;28;20047;-76
2022/12/20 05:48:11;;;;;;;4.78;2.58;;;;;;;9.87;100.00;101172.59;5056928;28;20111;-76
2022/12/20 05:50:36;;;;;;;3.80;2.38;;;;;;;9.88;100.00;101152.78;5056586;28;20126;-76
2022/12/20 05:53:01;;;;;;;5.32;2.35;;;;;;;9.83;100.00;101155.59;5056307;28;20478;-75
2022/12/20 05:55:26;;;;;;;5.45;2.85;;;;;;;9.81;100.00;101144.56;5056519;28;20033;-76
2022/12/20 05:57:52;;;;;;;6.45;2.60;;;;;;;9.86;100.00;101147.72;5056482;28;20035;-76
2022/12/20 06:00:17;;;;;;;6.07;2.53;;;;;;;9.64;100.00;101119.72;5056376;28;20029;-76
2022/12/20 06:02:42;;;;;;;6.72;2.92;;;;;;;9.77;100.00;101138.75;5054673;28;20549;-76
2022/12/20 06:05:08;;;;;;;4.93;2.88;;;;;;;9.72;100.00;101124.41;5056398;28;20056;-76
2022/12/20 06:07:33;;;;;;;4.68;2.70;;;;;;;9.86;100.00;101146.91;5056233;28;20151;-76
2022/12/20 06:09:59;;;;;;;4.97;2.20;;;;;;;9.74;100.00;101120.88;5056245;28;20025;-77
2022/12/20 06:12:24;;;;;;;5.03;2.40;;;;;;;9.77;100.00;101112.13;5056237;28;20442;-79
2022/12/20 06:14:50;;;;;;;3.95;2.22;;;;;;;9.72;100.00;101099.47;5056377;28;20021;-78
2022/12/20 06:17:17;;;;;;;4.82;2.40;;;;;;;9.82;100.00;101117.00;5055674;28;20021;-79
2022/12/20 06:19:42;;;;;;;7.25;2.78;;;;;;;9.63;100.00;101091.41;5056586;28;20021;-76
2022/12/20 06:22:08;;;;;;;4.65;2.35;;;;;;;9.80;100.00;101111.94;5056026;28;20520;-77
2022/12/20 06:24:34;;;;;;;6.32;2.92;;;;;;;9.83;100.00;101124.66;5055835;28;20025;-78
2022/12/20 06:27:01;;;;;;;6.80;2.30;;;;;;;9.82;100.00;101115.25;5055922;28;20538;-76
2022/12/20 06:29:26;;;;;;;5.30;2.28;;;;;;;9.79;100.00;101110.28;5056014;28;20032;-77
2022/12/20 06:31:51;;;;;;;6.05;2.55;;;;;;;9.60;100.00;101094.97;5055589;28;20075;-79
2022/12/20 06:34:17;;;;;;;4.72;2.00;;;;;;;9.76;100.00;101120.78;5055940;28;20025;-78
2022/12/20 06:36:43;;;;;;;5.65;2.25;;;;;;;9.77;100.00;101133.59;5055716;28;20465;-76
2022/12/20 06:39:08;;;;;;;6.07;2.28;;;;;;;9.76;100.00;101136.25;5055632;28;20036;-76
2022/12/20 06:41:35;;;;;;;5.20;2.00;;;;;;;9.69;99.99;101119.44;5055665;28;20017;-77
2022/12/20 06:44:00;;;;;;;5.20;2.17;;;;;;;9.71;100.00;101138.22;5055609;28;20487;-77
2022/12/20 06:46:26;;;;;;;5.13;2.20;;;;;;;9.68;99.94;101133.25;5054991;28;20052;-76
2022/12/20 06:48:51;;;;;;;5.18;2.33;;;;;;;9.60;99.58;101120.75;5054558;28;20060;-77
2022/12/20 06:51:17;;;;;;;5.63;2.17;;;;;;;9.63;99.62;101124.91;5054185;28;20104;-76
2022/12/20 06:53:42;;;;;;;3.42;2.15;;;;;;;9.63;99.81;101123.16;5055273;28;20464;-76
2022/12/20 06:56:07;;;;;;;3.85;2.40;;;;;;;9.41;99.19;101089.16;5055306;28;20029;-77
2022/12/20 06:58:33;;;;;;;4.80;2.30;;;;;;;9.60;98.96;101125.09;5055209;28;20029;-77
2022/12/20 07:00:58;;;;;;;8.32;3.25;;;;;;;9.53;99.11;101118.59;5055138;28;20152;-76
2022/12/20 07:03:23;;;;;;;4.10;2.20;;;;;;;9.61;98.94;101125.00;5053025;28;20037;-76
2022/12/20 07:05:53;;;;;;;3.47;2.00;;;;;;;9.40;98.61;101090.91;5055235;28;20388;-76
2022/12/20 07:08:19;;;;;;;4.72;2.30;;;;;;;9.53;98.58;101119.44;5055155;28;20055;-77
2022/12/20 07:10:44;;;;;;;4.75;2.10;;;;;;;9.64;98.42;101126.63;5054975;28;20028;-77
2022/12/20 07:13:10;;;;;;;3.72;2.00;;;;;;;9.58;97.87;101114.88;5054882;28;20021;-76
2022/12/20 07:15:35;;;;;;;4.53;2.10;;;;;;;9.71;97.74;101138.22;5055012;28;20365;-77
2022/12/20 07:18:01;;;;;;;5.60;2.25;;;;;;;9.58;96.84;101094.25;5054887;28;20052;-77
2022/12/20 07:20:27;;;;;;;2.97;1.83;;;;;;;9.73;96.51;101118.34;5052372;28;20044;-75
2022/12/20 07:22:53;;;;;;;5.28;2.22;;;;;;;9.64;96.37;101099.06;5055370;28;20029;-77
2022/12/20 07:25:18;;;;;;;5.40;2.15;;;;;;;9.80;96.19;101118.84;5054558;28;20045;-77
2022/12/20 07:27:46;;;;;;;3.75;1.70;;;;;;;9.81;96.08;101118.75;5054566;28;20108;-76
2022/12/20 07:30:12;;;;;;;3.65;1.90;;;;;;;9.84;95.47;101122.94;5054643;28;20021;-75
2022/12/20 07:32:37;;;;;;;4.07;1.83;;;;;;;9.87;95.36;101118.44;5054596;28;20170;-76
2022/12/20 07:35:03;;;;;;;4.20;2.10;;;;;;;9.63;94.96;101074.19;5054407;28;20384;-77
2022/12/20 07:37:29;;;;;;;4.25;2.00;;;;;;;9.92;94.81;101126.72;5054558;28;20021;-75
2022/12/20 07:39:54;;;;;;;3.80;1.80;;;;;;;9.97;94.86;101129.91;5054527;28;20507;-76
2022/12/20 07:42:19;;;;;;;4.03;1.85;;;;;;;9.91;94.09;101121.66;5054402;28;20025;-76
2022/12/20 07:44:46;;;;;;;3.88;1.77;;;;;;;9.99;94.19;101132.41;5054441;28;20354;-77
2022/12/20 07:47:11;;;;;;;3.83;1.70;;;;;;;9.99;93.41;101124.66;5054412;28;20025;-77
2022/12/20 07:49:37;;;;;;;5.22;2.17;;;;;;;10.05;93.65;101132.91;5054183;28;20028;-75
2022/12/20 07:52:03;;;;;;;4.07;1.83;;;;;;;9.82;93.15;101094.63;5052430;28;20037;-77
2022/12/20 07:54:33;;;;;;;4.55;2.33;;;;;;;10.07;93.05;101143.97;5054245;28;20025;-75
2022/12/20 07:57:04;;;;;;;3.47;1.90;;;;;;;10.07;93.36;101150.88;5054368;28;20035;-76
2022/12/20 07:59:37;;;;;;;2.40;1.75;;;;;;;10.09;93.17;101150.78;5053743;28;20472;-76
2022/12/20 08:02:04;;;;;;;6.03;2.10;;;;;;;10.09;93.18;101154.19;5054145;28;20016;-78
2022/12/20 08:04:29;;;;;;;4.18;1.95;;;;;;;10.04;93.87;101154.47;5053925;28;20408;-78
2022/12/20 08:06:58;;;;;;;5.07;2.03;;;;;;;10.00;95.96;101155.53;5053970;28;20029;-78
2022/12/20 08:09:29;;;;;;;4.07;2.25;;;;;;;9.87;96.42;101144.22;5053773;28;20488;-78
2022/12/20 08:11:55;;;;;;;3.42;2.20;;;;;;;9.90;98.12;101156.13;5054121;28;20032;-78
2022/12/20 08:14:21;;;;;;;3.70;2.17;;;;;;;9.61;100.00;101119.03;5053890;28;20029;-79
2022/12/20 08:16:46;;;;;;;4.80;2.28;;;;;;;9.67;100.00;101149.66;5053739;28;20039;-77
2022/12/20 08:19:11;;;;;;;4.10;2.25;;;;;;;9.53;100.00;101141.78;5053825;28;20028;-78
2022/12/20 08:21:37;;;;;;;5.72;2.10;;;;;;;9.43;100.00;101141.47;5053634;28;20057;-78
2022/12/20 08:24:02;;;;;;;3.60;2.10;;;;;;;9.19;100.00;101115.25;5053635;28;20025;-78
2022/12/20 08:26:28;;;;;;;3.13;2.35;;;;;;;9.37;100.00;101147.78;5053547;28;20028;-78
2022/12/20 08:28:54;;;;;;;5.18;2.42;;;;;;;9.40;100.00;101150.19;5053634;28;20029;-79
2022/12/20 08:31:20;;;;;;;6.10;2.58;;;;;;;9.24;100.00;101122.72;5053613;28;20029;-80
2022/12/20 08:33:45;;;;;;;5.63;2.53;;;;;;;9.34;100.00;101149.66;5053437;28;20029;-81
2022/12/20 08:36:12;;;;;;;5.13;2.58;;;;;;;9.26;100.00;101136.38;5053392;28;20025;-80
2022/12/20 08:38:39;;;;;;;6.25;2.63;;;;;;;9.25;100.00;101134.72;5053448;28;20079;-80
2022/12/20 08:41:11;;;;;;;6.07;2.55;;;;;;;9.16;100.00;101133.44;5053286;28;20481;-80
2022/12/20 08:43:37;;;;;;;4.32;2.45;;;;;;;9.27;100.00;101153.50;5051987;28;20037;-80
2022/12/20 08:46:02;;;;;;;7.28;2.58;;;;;;;9.28;100.00;101145.69;5053326;28;20469;-80
2022/12/20 08:48:28;;;;;;;4.72;2.63;;;;;;;9.30;100.00;101148.19;5051653;28;20037;-80
2022/12/20 08:50:59;;;;;;;6.30;2.95;;;;;;;9.26;100.00;101134.63;5053507;28;20022;-80
2022/12/20 08:53:26;;;;;;;7.57;2.60;;;;;;;9.31;100.00;101139.53;5051909;28;20035;-79
2022/12/20 08:55:52;;;;;;;7.55;2.60;;;;;;;9.28;100.00;101137.97;5053026;28;20025;-81
2022/12/20 08:58:18;;;;;;;8.77;2.70;;;;;;;9.28;100.00;101134.56;5053317;28;20028;-85
2022/12/20 09:00:43;;;;;;;7.00;2.80;;;;;;;9.29;100.00;101125.91;5053253;28;20044;-80
2022/12/20 09:03:10;;;;;;;6.18;2.58;;;;;;;9.26;100.00;101133.81;5052852;28;20076;-83
2022/12/20 09:05:36;;;;;;;7.22;2.50;;;;;;;9.18;100.00;101122.16;5053066;28;20558;-81
2022/12/20 09:08:01;;;;;;;6.88;3.15;;;;;;;9.05;100.00;101104.84;5053058;28;20036;-82
2022/12/20 09:10:26;;;;;;;4.72;2.28;;;;;;;9.19;100.00;101131.53;5052373;28;20056;-81
2022/12/20 09:12:51;;;;;;;7.13;3.10;;;;;;;9.18;100.00;101126.47;5053050;28;20376;-83
2022/12/20 09:15:17;;;;;;;6.30;3.20;;;;;;;9.18;100.00;101132.44;5052897;28;20052;-84
2022/12/20 09:17:42;;;;;;;6.20;2.95;;;;;;;9.19;100.00;101128.97;5052935;28;20029;-87
2022/12/20 09:20:08;;;;;;;7.00;3.58;;;;;;;9.18;100.00;101122.16;5052951;28;20021;-86
2022/12/20 09:22:33;;;;;;;6.18;2.90;;;;;;;9.22;100.00;101117.66;5052878;28;20036;-85
2022/12/20 09:24:58;;;;;;;7.35;2.80;;;;;;;9.25;100.00;101111.53;5052935;28;20532;-83
2022/12/20 09:27:24;;;;;;;4.22;2.63;;;;;;;9.25;100.00;101117.50;5052725;28;20103;-86
2022/12/20 09:29:49;;;;;;;6.88;3.42;;;;;;;9.37;100.00;101126.34;5053024;28;20037;-78
2022/12/20 09:32:14;;;;;;;7.10;3.13;;;;;;;9.25;100.00;101107.22;5052963;28;20020;-78
2022/12/20 09:34:40;;;;;;;8.02;3.50;;;;;;;9.24;100.00;101110.66;5052493;28;20025;-85
2022/12/20 09:37:05;;;;;;;7.40;2.97;;;;;;;9.35;100.00;101125.59;5052707;28;20029;-87
2022/12/20 09:39:30;;;;;;;7.85;3.83;;;;;;;9.33;100.00;101123.06;5053194;28;20032;-83
2022/12/20 09:41:57;;;;;;;6.18;3.25;;;;;;;9.23;100.00;101109.00;5052718;28;20032;-86
2022/12/20 09:44:22;;;;;;;6.57;3.25;;;;;;;9.37;100.00;101127.16;5051058;28;20136;-86
2022/12/20 09:46:53;;;;;;;11.40;3.50;;;;;;;9.39;100.00;101133.06;5052815;28;20110;-83
2022/12/20 09:49:30;;;;;;;8.60;3.50;;;;;;;9.38;100.00;101126.25;5052486;28;20021;-84
2022/12/20 09:52:07;;;;;;;5.18;3.10;;;;;;;9.43;100.00;101126.81;5052930;28;20372;-86
2022/12/20 09:54:51;;;;;;;6.70;3.35;;;;;;;9.47;100.00;101127.50;5052800;28;20163;-85
2022/12/20 09:57:23;;;;;;;8.52;3.60;;;;;;;9.29;100.00;101092.41;5052348;28;20043;-88
2022/12/20 09:59:48;;;;;;;6.18;3.00;;;;;;;9.28;100.00;101094.16;5051179;28;20028;-88
2022/12/20 10:02:21;;;;;;;8.48;3.78;;;;;;;9.49;100.00;101121.34;5052634;28;20017;-89
2022/12/20 10:04:47;;;;;;;7.95;3.55;;;;;;;9.48;100.00;101114.53;5052341;28;20127;-87
2022/12/20 10:07:21;;;;;;;7.78;3.58;;;;;;;9.51;100.00;101120.44;5052592;28;20187;-88
2022/12/20 10:09:54;;;;;;;5.53;3.00;;;;;;;9.53;100.00;101119.44;5052648;28;20486;-89
2022/12/20 10:12:36;;;;;;;6.72;3.33;;;;;;;9.55;100.00;101114.22;5052195;28;20484;-89
2022/12/20 10:15:21;;;;;;;9.30;3.40;;;;;;;9.59;100.00;101108.78;5052678;28;20083;-89
2022/12/20 10:18:05;;;;;;;5.32;3.00;;;;;;;9.61;100.00;101112.13;5052700;28;20167;-84
2022/12/20 10:20:40;;;;;;;6.13;3.00;;;;;;;9.54;100.00;101090.19;5052486;28;20029;-89
2022/12/20 10:23:22;;;;;;;5.93;3.10;;;;;;;9.60;100.00;101099.31;5055293;28;20465;-88
2022/12/20 10:25:50;;;;;;;6.20;2.90;;;;;;;9.65;100.00;101093.00;5056088;28;20104;-88
2022/12/20 10:28:15;;;;;;;6.47;3.03;;;;;;;9.72;100.00;101099.47;5055764;28;20032;-85
2022/12/20 10:30:42;;;;;;;6.65;3.22;;;;;;;9.78;100.00;101109.44;5055794;28;20033;-84
2022/12/20 10:33:18;;;;;;;6.40;3.40;;;;;;;9.74;100.00;101097.66;5055814;28;20033;-85
2022/12/20 10:35:44;;;;;;;5.45;3.10;;;;;;;9.84;100.00;101104.88;5055344;28;20075;-85
2022/12/20 10:38:12;;;;;;;7.45;3.40;;;;;;;9.68;100.00;101079.09;5053791;28;20037;-84
2022/12/20 10:40:49;;;;;;;7.22;3.20;;;;;;;9.89;100.00;101088.22;5055763;28;20025;-83
2022/12/20 10:43:18;;;;;;;6.68;3.47;;;;;;;9.88;100.00;101090.88;5055484;28;20025;-80
2022/12/20 10:45:53;;;;;;;6.63;2.85;;;;;;;9.96;100.00;101094.72;5055279;28;20036;-80
2022/12/20 10:48:25;;;;;;;5.45;2.70;;;;;;;9.83;100.00;101072.25;5055313;28;20025;-80
2022/12/20 10:50:59;;;;;;;;;;;;;;;9.96;100.00;101094.72;5055853;28;20021;-77
2022/12/20 10:53:27;;;;;;;4.40;2.85;;;;;;;9.80;100.00;101070.69;5055454;28;19917;-81
2022/12/20 10:55:54;;;;;;;6.07;2.80;;;;;;;9.86;100.00;101088.41;5055062;28;20025;-81
2022/12/20 10:58:34;;;;;;;7.38;3.42;;;;;;;9.88;100.00;101086.56;5049806;28;20049;-80
2022/12/20 11:01:05;;;;;;;8.75;4.00;;;;;;;9.67;100.00;101069.72;5055310;28;20021;-78
2022/12/20 11:03:30;;;;;;;6.75;4.30;;;;;;;9.77;100.00;101089.75;5055065;28;20033;-81
2022/12/20 11:06:02;;;;;;;11.07;6.68;;;;;;;9.74;100.00;101079.59;5055276;28;20078;-82
2022/12/20 11:08:29;;;;;;;;;;;;;;;9.75;100.00;101085.59;5055504;28;20031;-81
2022/12/20 11:11:12;;;;;;;8.48;5.28;;;;;;;9.68;100.00;101082.50;5055684;28;19992;-81
2022/12/20 11:13:39;;;;;;;7.32;4.43;;;;;;;9.66;100.00;101084.34;5054914;28;20040;-80
2022/12/20 11:16:04;;;;;;;8.75;5.07;;;;;;;9.49;100.00;101051.75;5054982;28;20025;-82
2022/12/20 11:18:41;;;;;;;11.43;6.70;;;;;;;9.64;100.00;101073.28;5054934;28;20036;-81
2022/12/20 11:21:31;;;;;;;14.50;8.40;;;;;;;9.67;100.00;101075.69;5054747;28;20058;-79
2022/12/20 11:24:20;;;;;;;10.43;6.13;;;;;;;9.64;100.00;101072.47;5054635;28;20503;-82
2022/12/20 11:26:54;;;;;;;9.75;5.40;;;;;;;9.63;100.00;101071.59;5054753;28;20094;-81
2022/12/20 11:29:34;;;;;;;7.75;4.30;;;;;;;9.65;100.00;101071.53;5054709;28;20024;-80
2022/12/20 11:32:05;;;;;;;8.70;4.80;;;;;;;9.71;100.00;101073.75;5055241;28;20021;-82
2022/12/20 11:34:30;;;;;;;8.00;4.70;;;;;;;9.77;100.00;101071.69;5054174;28;20040;-79
2022/12/20 11:37:25;;;;;;;7.70;3.95;;;;;;;9.81;100.00;101067.19;5054489;28;20032;-79
2022/12/20 11:40:20;;;;;;;7.50;3.55;;;;;;;9.82;100.00;101065.44;5054393;28;20033;-79